createdAt,value
2022-08-04T00:00:00.360Z,155.4
2022-08-04T00:05:00.329Z,90.3
2022-08-04T00:10:00.378Z,90.0
2022-08-04T00:15:00.337Z,90.0
2022-08-04T00:20:02.385Z,90.0
2022-08-04T00:25:00.329Z,90.0
2022-08-04T00:30:00.341Z,90.0
2022-08-04T00:35:00.333Z,90.0
2022-08-04T00:40:00.339Z,90.0
2022-08-04T00:45:00.381Z,90.0
2022-08-04T00:50:00.370Z,90.0
2022-08-04T00:55:00.767Z,90.0
2022-08-04T01:00:00.372Z,90.0
2022-08-04T01:05:00.349Z,90.0
2022-08-04T01:10:00.375Z,90.0
2022-08-04T01:15:00.357Z,90.0
2022-08-04T01:20:00.371Z,90.0
2022-08-04T01:25:08.382Z,90.0
2022-08-04T01:30:00.357Z,90.0
2022-08-04T01:35:00.328Z,90.0
2022-08-04T01:40:00.333Z,90.0
2022-08-04T01:45:00.396Z,90.0
2022-08-04T01:50:00.308Z,90.0
2022-08-04T01:55:00.329Z,90.0
2022-08-04T02:00:00.394Z,90.0
2022-08-04T02:05:00.337Z,90.0
2022-08-04T02:10:00.348Z,90.0
2022-08-04T02:15:00.380Z,90.0
2022-08-04T02:20:00.317Z,90.0
2022-08-04T02:25:00.325Z,90.0
2022-08-04T02:30:00.335Z,90.0
2022-08-04T02:35:00.370Z,90.0
2022-08-04T02:40:00.367Z,90.0
2022-08-04T02:45:00.370Z,90.0
2022-08-04T02:50:00.357Z,90.0
2022-08-04T02:55:00.345Z,90.0
2022-08-04T03:00:00.424Z,90.0
2022-08-04T03:05:00.344Z,90.0
2022-08-04T03:10:00.337Z,90.0
2022-08-04T03:15:00.332Z,90.0
2022-08-04T03:20:00.378Z,90.0
2022-08-04T03:25:00.404Z,90.0
2022-08-04T03:30:00.351Z,90.0
2022-08-04T03:35:00.328Z,90.0
2022-08-04T03:40:00.346Z,90.0
2022-08-04T03:45:00.370Z,90.0
2022-08-04T03:50:00.440Z,90.0
2022-08-04T03:55:00.326Z,90.0
2022-08-04T04:00:00.334Z,90.0
2022-08-04T04:05:01.211Z,90.0
2022-08-04T04:10:07.753Z,90.0
2022-08-04T04:15:00.348Z,90.0
2022-08-04T04:20:00.370Z,90.0
2022-08-04T04:25:00.330Z,90.0
2022-08-04T04:30:00.323Z,90.0
2022-08-04T04:35:00.335Z,90.0
2022-08-04T04:40:04.219Z,90.0
2022-08-04T04:45:00.365Z,90.0
2022-08-04T04:50:00.332Z,90.0
2022-08-04T04:55:00.431Z,90.0
2022-08-04T05:00:00.404Z,83.5
2022-08-04T05:05:00.332Z,69.9
2022-08-04T05:10:00.418Z,83.2
2022-08-04T05:15:00.339Z,83.0
2022-08-04T05:20:01.351Z,90.0
2022-08-04T05:25:00.377Z,89.9
2022-08-04T05:30:00.468Z,118.3
2022-08-04T05:35:00.464Z,73.3
2022-08-04T05:40:00.466Z,131.0
2022-08-04T05:45:00.426Z,114.0
2022-08-04T05:50:03.444Z,94.0
2022-08-04T05:55:00.497Z,67.7
2022-08-04T06:00:00.448Z,85.1
2022-08-04T06:05:00.409Z,90.0
2022-08-04T06:10:00.399Z,142.3
2022-08-04T06:15:00.394Z,136.2
2022-08-04T06:25:00.256Z,158.3
2022-08-04T06:30:00.384Z,157.9
2022-08-04T06:35:00.286Z,160.9
2022-08-04T06:40:00.430Z,163.3
2022-08-04T06:45:00.270Z,169.9
2022-08-04T06:51:24.027Z,100.0
2022-08-04T06:55:00.268Z,141.8
2022-08-04T07:00:00.387Z,106.1
2022-08-04T07:05:08.144Z,155.3
2022-08-04T07:10:00.439Z,88.7
2022-08-04T07:15:00.242Z,155.3
2022-08-04T07:20:00.337Z,172.0
2022-08-04T07:25:01.589Z,161.7
2022-08-04T07:30:00.368Z,135.8
2022-08-04T07:35:00.218Z,147.1
2022-08-04T07:40:00.872Z,101.8
2022-08-04T07:45:00.600Z,78.6
2022-08-04T07:50:00.337Z,184.8
2022-08-04T07:55:00.201Z,173.7
2022-08-04T08:00:00.465Z,100.6
2022-08-04T08:05:00.250Z,151.4
2022-08-04T08:10:00.403Z,137.0
2022-08-04T08:15:00.188Z,75.8
2022-08-04T08:20:00.378Z,136.8
2022-08-04T08:25:00.256Z,97.4
2022-08-04T08:30:00.386Z,85.2
2022-08-04T08:35:00.232Z,99.8
2022-08-04T08:40:00.360Z,166.6
2022-08-04T08:45:00.221Z,173.2
2022-08-04T08:50:05.229Z,113.1
2022-08-04T08:55:00.480Z,201.3
2022-08-04T09:00:00.384Z,185.9
2022-08-04T09:05:00.232Z,94.9
2022-08-04T09:10:00.914Z,108.7
2022-08-04T09:15:00.220Z,93.9
2022-08-04T09:20:00.435Z,151.5
2022-08-04T09:25:00.262Z,68.7
2022-08-04T09:30:00.413Z,155.6
2022-08-04T09:35:16.232Z,201.8
2022-08-04T09:40:02.037Z,104.5
2022-08-04T09:45:07.082Z,104.6
2022-08-04T09:50:00.362Z,50.5
2022-08-04T09:55:00.240Z,152.3
2022-08-04T10:00:03.047Z,150.3
2022-08-04T10:05:00.214Z,161.1
2022-08-04T10:10:00.387Z,71.6
2022-08-04T10:15:00.213Z,89.5
2022-08-04T10:20:00.358Z,74.0
2022-08-04T10:25:00.270Z,144.5
2022-08-04T10:30:00.967Z,78.2
2022-08-04T10:35:00.238Z,193.7
2022-08-04T10:40:00.769Z,227.2
2022-08-04T10:45:00.367Z,116.7
2022-08-04T10:50:00.370Z,127.3
2022-08-04T10:55:00.615Z,177.4
2022-08-04T11:00:04.812Z,193.3
2022-08-04T11:05:00.667Z,301.5
2022-08-04T11:10:00.372Z,184.0
2022-08-04T11:15:00.288Z,177.0
2022-08-04T11:20:35.833Z,175.6
2022-08-04T11:25:00.227Z,209.5
2022-08-04T11:30:00.378Z,187.8
2022-08-04T11:35:00.360Z,170.1
2022-08-04T11:40:00.342Z,180.5
2022-08-04T11:45:00.233Z,198.2
2022-08-04T11:50:00.413Z,220.8
2022-08-04T11:55:00.286Z,145.3
2022-08-04T12:00:08.074Z,151.1
2022-08-04T12:05:00.210Z,204.2
2022-08-04T12:10:00.366Z,193.9
2022-08-04T12:15:00.223Z,231.5
2022-08-04T12:20:32.372Z,154.2
2022-08-04T12:25:00.234Z,212.3
2022-08-04T12:30:56.421Z,161.8
2022-08-04T12:35:00.225Z,192.9
2022-08-04T12:40:31.100Z,173.6
2022-08-04T12:45:00.234Z,205.0
2022-08-04T12:50:03.943Z,195.6
2022-08-04T12:55:00.333Z,204.0
2022-08-04T13:00:00.382Z,194.1
2022-08-04T13:05:02.283Z,195.6
2022-08-04T13:10:00.443Z,165.9
2022-08-04T13:15:18.579Z,181.3
2022-08-04T13:20:00.369Z,153.8
2022-08-04T13:26:41.030Z,189.0
2022-08-04T13:30:04.529Z,172.7
2022-08-04T13:35:00.414Z,194.1
2022-08-04T13:40:00.444Z,206.9
2022-08-04T13:45:00.308Z,179.2
2022-08-04T13:50:12.470Z,165.8
2022-08-04T13:55:00.262Z,184.5
2022-08-04T14:00:00.508Z,188.7
2022-08-04T14:05:00.249Z,195.4
2022-08-04T14:10:04.854Z,181.3
2022-08-04T14:15:00.250Z,191.4
2022-08-04T14:20:00.545Z,190.6
2022-08-04T14:25:00.239Z,224.4
2022-08-04T14:30:00.606Z,184.5
2022-08-04T14:35:06.507Z,198.0
2022-08-04T14:40:31.296Z,195.3
2022-08-04T14:45:00.238Z,218.4
2022-08-04T14:50:00.457Z,186.5
2022-08-04T14:55:05.482Z,200.4
2022-08-04T15:00:12.719Z,204.3
2022-08-04T15:05:54.643Z,180.4
2022-08-04T15:10:01.032Z,189.1
2022-08-04T15:15:36.793Z,195.5
2022-08-04T15:20:00.370Z,198.2
2022-08-04T15:25:00.230Z,238.5
2022-08-04T15:30:03.149Z,225.0
2022-08-04T15:35:00.237Z,209.0
2022-08-04T15:40:00.424Z,207.4
2022-08-04T15:45:00.275Z,188.2
2022-08-04T15:50:00.388Z,144.6
2022-08-04T15:55:03.937Z,193.2
2022-08-04T16:00:00.809Z,224.8
2022-08-04T16:05:00.248Z,197.9
2022-08-04T16:10:00.481Z,228.1
2022-08-04T16:15:00.331Z,226.7
2022-08-04T16:20:00.427Z,210.8
2022-08-04T16:25:00.244Z,180.5
2022-08-04T16:30:00.382Z,172.6
2022-08-04T16:35:00.581Z,188.3
2022-08-04T16:40:00.380Z,180.8
2022-08-04T16:45:00.248Z,187.6
2022-08-04T16:50:00.411Z,199.0
2022-08-04T16:55:00.243Z,177.7
2022-08-04T17:00:02.030Z,208.7
2022-08-04T17:05:08.424Z,199.9
2022-08-04T17:10:00.613Z,198.2
2022-08-04T17:15:00.241Z,185.5
2022-08-04T17:20:00.394Z,195.0
2022-08-04T17:25:00.275Z,187.6
2022-08-04T17:30:00.405Z,198.4
2022-08-04T17:35:03.926Z,196.6
2022-08-04T17:40:00.362Z,206.0
2022-08-04T17:45:00.250Z,177.9
2022-08-04T17:50:00.368Z,184.8
2022-08-04T17:55:03.260Z,196.1
2022-08-04T18:00:00.955Z,198.9
2022-08-04T18:05:14.702Z,177.4
2022-08-04T18:10:34.983Z,184.1
2022-08-04T18:15:00.597Z,201.4
2022-08-04T18:20:01.696Z,198.2
2022-08-04T18:25:02.201Z,165.9
2022-08-04T18:30:34.179Z,171.5
2022-08-04T18:35:16.914Z,164.8
2022-08-04T18:40:39.111Z,180.1
2022-08-04T18:45:01.173Z,180.0
2022-08-04T18:50:32.816Z,180.0
2022-08-04T18:55:02.472Z,180.0
2022-08-04T19:00:02.980Z,139.0
2022-08-04T19:05:01.960Z,152.6
2022-08-04T19:10:04.213Z,157.5
2022-08-04T19:15:34.327Z,157.5
2022-08-04T19:20:00.695Z,157.5
2022-08-04T19:25:00.243Z,157.5
2022-08-04T19:30:01.207Z,157.5
2022-08-04T19:35:00.402Z,157.5
2022-08-04T19:40:00.490Z,157.5
2022-08-04T19:45:02.568Z,157.5
2022-08-04T19:50:11.814Z,157.5
2022-08-04T19:55:10.909Z,157.5
2022-08-04T20:00:00.655Z,157.5
2022-08-04T20:05:00.234Z,157.5
2022-08-04T20:10:05.248Z,157.5
2022-08-04T20:15:00.280Z,265.1
2022-08-04T20:20:00.388Z,280.6
2022-08-04T20:30:02.149Z,245.2
2022-08-04T20:35:00.406Z,244.5
2022-08-04T20:40:00.994Z,252.2
2022-08-04T20:45:02.277Z,243.4
2022-08-04T20:50:01.064Z,248.1
2022-08-04T20:55:00.248Z,310.8
2022-08-04T21:00:00.801Z,336.5
2022-08-04T21:05:00.329Z,212.9
2022-08-04T21:10:00.413Z,141.2
2022-08-04T21:15:13.782Z,13.4
2022-08-04T21:20:00.344Z,20.1
2022-08-04T21:25:01.543Z,0.4
2022-08-04T21:30:00.407Z,301.5
2022-08-04T21:35:16.356Z,270.1
2022-08-04T21:40:32.892Z,356.2
2022-08-04T21:45:03.762Z,44.0
2022-08-04T21:50:01.220Z,45.0
2022-08-04T21:55:00.917Z,62.1
2022-08-04T22:00:18.588Z,13.9
2022-08-04T22:05:00.239Z,19.8
2022-08-04T22:10:03.588Z,2.3
2022-08-04T22:15:00.421Z,320.1
2022-08-04T22:20:28.434Z,296.5
2022-08-04T22:25:00.419Z,314.1
2022-08-04T22:30:00.376Z,304.5
2022-08-04T22:35:31.088Z,291.5
2022-08-04T22:40:02.660Z,289.5
2022-08-04T22:45:00.632Z,306.6
2022-08-04T22:50:28.360Z,345.7
2022-08-04T22:55:00.225Z,300.5
2022-08-04T23:00:01.236Z,327.6
2022-08-04T23:05:00.247Z,311.2
2022-08-04T23:10:00.371Z,316.5
2022-08-04T23:15:00.364Z,27.1
2022-08-04T23:20:00.562Z,348.3
2022-08-04T23:25:00.192Z,45.2
2022-08-04T23:30:00.355Z,351.2
2022-08-04T23:35:00.546Z,43.5
2022-08-04T23:40:33.816Z,40.0
2022-08-04T23:45:00.789Z,35.1
2022-08-04T23:50:00.373Z,40.3
2022-08-04T23:55:00.713Z,24.6
